METAR Data
IDs: Format: Raw Decoded Include TAF

Data at: 1932 UTC 23 Feb 2019

METAR for:KAUS (Austin/Bergstrom Int, TX, US)
Text:KAUS 231853Z 29011G17KT 10SM FEW120 BKN250 23/M03 A2994 RMK AO2 PK WND 28028/1757 SLP132 T02281033
Temperature: 22.8°C ( 73°F)
Dewpoint: -3.3°C ( 26°F) [RH = 17%]
Pressure (altimeter):29.94 inches Hg (1014.0 mb) [Sea level pressure: 1013.2 mb]
Winds:from the WNW (290 degrees) at 13 MPH (11 knots; 5.7 m/s) gusting to 20 MPH (17 knots; 8.7 m/s)
Visibility:10 or more sm (16+ km)
Ceiling:25000 feet AGL
Clouds: few clouds at 12000 feet AGL, broken clouds at 25000 feet AGL